Address 0x55186f40e47644f9b710113b103a16709d63f6c4 2

Overview

Balance:
1.88109607558146788 GLMR

GLMR Value:
$0.66 (@ $0.35/GLMR)

Token:
Txn Hash Method
Block
From
To
Value [Txn Fee]
0x86b5afb0e72be53f6e9e667504cd959153ec5238cc45d97473ae4d1a7901907cDeposit20048712022-10-04 7:38:0053 days 8 hrs ago0x55186f40e47644f9b710113b103a16709d63f6c4OUT 0xf3a5454496e26ac57da879bf3285fa85debf03880 GLMR0.041341356
0xfb3be4eb5dfcfe8b629addaabd0334d27f477fb2cdd323c97bb5f95e8b1277f7Enter20048682022-10-04 7:37:1253 days 9 hrs ago0x55186f40e47644f9b710113b103a16709d63f6c4OUT StellaSwap: xStella Token0 GLMR0.005687248
0x01abba23e1a1643be829ca839003ee3bdca58d92bc601961c2c427afc12ae6c5Swap Exact Token...20048642022-10-04 7:36:2453 days 9 hrs ago0x55186f40e47644f9b710113b103a16709d63f6c4OUT StellaSwap: Router v2.10 GLMR0.013922146
0x58aa7041980f1c148335d861398f1d0bf6bfc645970a076749b79bbc6e79b9f6Claim20048602022-10-04 7:35:3053 days 9 hrs ago0x55186f40e47644f9b710113b103a16709d63f6c4OUT 0xee42d4861b56b32776e6fe9a2fe122af0e3f4a330 GLMR0.0112444745
0xad3c0ec9482b6fb8198d5458ebaa02ac6175d22302703f5e644ea8f7356742baApprove20048532022-10-04 7:34:0653 days 9 hrs ago0x55186f40e47644f9b710113b103a16709d63f6c4OUT Multichain: ETH Token0 GLMR0.0047310165
0x7834ed8f40d75af1c174e319ad8d3c2e793aca12dba8a5b7cc3f68688146f32bSwap Exact Token...17837342022-09-02 15:33:0085 days 1 hr ago0x55186f40e47644f9b710113b103a16709d63f6c4OUT StellaSwap: Router v2.10 GLMR0.010066364
0xce50cd9e4e8f0cf1c730b83e96be782bfc3d6fd94971373afeeed63bd18e87f9Deposit17014742022-08-21 20:07:0196 days 20 hrs ago0x55186f40e47644f9b710113b103a16709d63f6c4OUT 0xf3a5454496e26ac57da879bf3285fa85debf03880 GLMR0.057527471085
0x413cdcc84cdff6ba6a8ad2f4c6162a0965bef25a839ddf1bf1aab52a13b113bfEnter17014692022-08-21 20:06:0096 days 20 hrs ago0x55186f40e47644f9b710113b103a16709d63f6c4OUT StellaSwap: xStella Token0 GLMR0.005699433169
0x7f7edcf05b087fedb77c3faa8d7023245686213d263185bbedb511e7bef782d7Remove Liquidity16214222022-08-10 7:42:18108 days 8 hrs ago0x55186f40e47644f9b710113b103a16709d63f6c4OUT StellaSwap: Router v2.10 GLMR0.014758506
0x036027811e698a684662ce70d387b908da748ae72aa8fb13592f908fb28953ffWithdraw16213702022-08-10 7:30:48108 days 9 hrs ago0x55186f40e47644f9b710113b103a16709d63f6c4OUT StellaSwap: Distributor0 GLMR0.0074540585
0xc3608a84ba08f255f104e51b6a41f86ef575d03208826ebe58d4e394588e4b95Deposit16213672022-08-10 7:30:06108 days 9 hrs ago0x55186f40e47644f9b710113b103a16709d63f6c4OUT StellaSwap: Distributor0 GLMR0.0101155915
0x62a6e6c3ec7508902ba7c6afc6e33b02e08dafbc91e5df57d266c0ecfe2f0f59Transfer9064092022-04-27 5:59:48213 days 10 hrs ago0x55186f40e47644f9b710113b103a16709d63f6c4OUT0x68a216ae3fb75520654df0660307de7042102fc791.698 GLMR0.0021315
0x2e4e9f1a4552cf1d54a3e1ac5ad0a832342e628fa78d306ccbb86d4311682924Transfer9063732022-04-27 5:52:18213 days 10 hrs ago0x55186f40e47644f9b710113b103a16709d63f6c4OUT0x68a216ae3fb75520654df0660307de7042102fc71 GLMR0.0021315
0x614595e4844eefe6896289af91d2d5f5eed658a92045b346ee2bfe66d7139582Swap Exact Token...9063502022-04-27 5:47:24213 days 10 hrs ago0x55186f40e47644f9b710113b103a16709d63f6c4OUT StellaSwap: Router v2.10 GLMR0.011735024
0x203bdcea234e1d8f1d3f7dc11e966c39e2933ba4ea8f9f2f6b054bbbe85e458cApprove9063472022-04-27 5:46:48213 days 10 hrs ago0x55186f40e47644f9b710113b103a16709d63f6c4OUT StellaSwap: STELLA Token0 GLMR0.0047969915
0x24b75c42306bdbea6d157ef527edd2da1ae9796a75f8c3e15910c81c153417daSwap Exact Token...9063462022-04-27 5:46:36213 days 10 hrs ago0x55186f40e47644f9b710113b103a16709d63f6c4OUT StellaSwap: Router v2.10 GLMR0.011442907
0x34af6f54284645424bea9d2c12ff0b8d01f1eb363d57996d5ef4da9ec7cb54aeApprove9063432022-04-27 5:46:00213 days 10 hrs ago0x55186f40e47644f9b710113b103a16709d63f6c4OUT Multichain: USDC Token0 GLMR0.0047310165
0xbebe1ab197f485987f127da74645a4f7154eaac7155986f129168f0f3be4fd6eRemove Liquidity9063372022-04-27 5:44:48213 days 10 hrs ago0x55186f40e47644f9b710113b103a16709d63f6c4OUT StellaSwap: Router v2.10 GLMR0.0125658015
0x53148a167f54b9b2207e656d92d54f15fb7bdc51c49deb9a4abee7072d68e4f2Approve9063342022-04-27 5:44:12213 days 10 hrs ago0x55186f40e47644f9b710113b103a16709d63f6c4OUT 0x81e11a9374033d11cc7e7485a7192ae37d0795d60 GLMR0.004721171
0x6697884a77b63ac8d927c2086529eeb94db8619c2faec7cf0a8fa16fc47aee44Withdraw9063302022-04-27 5:43:24213 days 10 hrs ago0x55186f40e47644f9b710113b103a16709d63f6c4OUT StellaSwap: Distributor0 GLMR0.0181377455
0xf8617774f388121324a17744b40a204523a7e1b80c6bb918c489b50ede5b11a9Harvest Many9063212022-04-27 5:41:36213 days 10 hrs ago0x55186f40e47644f9b710113b103a16709d63f6c4OUT 0xf3a5454496e26ac57da879bf3285fa85debf03880 GLMR0.0811911695
0x36d869f23c7e5b86529d11dd7b6ad5a788bdf784d6f9bd028dc06feae1e1cf7dHarvest Many9063202022-04-27 5:41:24213 days 10 hrs ago0x55186f40e47644f9b710113b103a16709d63f6c4OUT StellaSwap: Distributor0 GLMR0.0145470815
0x7b9d6b87605511844ef270c930beae75ce7e68f341324ada27f8d2577710ae52Transfer8548892022-04-19 20:29:42220 days 20 hrs ago0x55186f40e47644f9b710113b103a16709d63f6c4OUT0x68a216ae3fb75520654df0660307de7042102fc736 GLMR0.0021315
0x38dba1b02a0a7fd33e85100a7049dc2626d05f1c42ef034774f67e2c9d48637cTransfer8548242022-04-19 20:16:42220 days 20 hrs ago0x55186f40e47644f9b710113b103a16709d63f6c4OUT0x68a216ae3fb75520654df0660307de7042102fc71 GLMR0.0021315
0x647131f253d7e4fc1c68eeaa4601903a486e24a69aac8a7a5650e8f77cf9dfb7Deposit8548052022-04-19 20:12:48220 days 20 hrs ago0x55186f40e47644f9b710113b103a16709d63f6c4OUT StellaSwap: Distributor0 GLMR0.016919238
[ Download CSV Export 
Latest 8 internal transactions
Parent Txn Hash Block From To Value
0x614595e4844eefe6896289af91d2d5f5eed658a92045b346ee2bfe66d71395829063502022-04-27 5:47:24213 days 10 hrs ago StellaSwap: Router v2.10x55186f40e47644f9b710113b103a16709d63f6c448.132113527703812182 GLMR
0x24b75c42306bdbea6d157ef527edd2da1ae9796a75f8c3e15910c81c153417da9063462022-04-27 5:46:36213 days 10 hrs ago StellaSwap: Router v2.10x55186f40e47644f9b710113b103a16709d63f6c444.60067159163797904 GLMR
0x3f07828285466f109c95c7a149977806edf649830f873c7f9982f6de56ff46438547462022-04-19 20:00:54220 days 20 hrs ago StellaSwap: Router v2.10x55186f40e47644f9b710113b103a16709d63f6c418.663953902296085457 GLMR
0xcdeac6a802996bbc985d937476b9d8b5de573958fff9afa8394fcd49e8d27d178547412022-04-19 19:59:42220 days 20 hrs ago StellaSwap: Router v2.10x55186f40e47644f9b710113b103a16709d63f6c418.825232989775855426 GLMR
0x43496a186bfe86109e5d0f87b8fb17e689c0de452c78ea0849e73672773b63df6738912022-03-24 20:56:36246 days 19 hrs ago 0x69f9d134991e141c4244f397514ba05d67861cc00x55186f40e47644f9b710113b103a16709d63f6c40.074428355253431509 GLMR
0x6e8b78a0d80367a570d073e71e652c3027e1a9c5e4fb42c16f6a74d2db3869fa6214092022-03-17 8:08:00254 days 8 hrs ago Moonbeam: WGLMR Token0x55186f40e47644f9b710113b103a16709d63f6c411.716577747293107073 GLMR
0x2d1f3f87cf588463765e7b28c33e4e847b7cbb003463dde3349c31ae7d68f2005808112022-03-11 13:25:30260 days 3 hrs ago StellaSwap: Router v20x55186f40e47644f9b710113b103a16709d63f6c40.720953095800827987 GLMR
0x2063ee1994e0f2bbefc64cd78d95a12b88a5a9896b00b2ac3304a65d81c237073733562022-02-09 8:16:30290 days 8 hrs ago StellaSwap: Router v20x55186f40e47644f9b710113b103a16709d63f6c40.953289663206188704 GLMR
[ Download CSV Export 
Loading

Contract Name:
0

Compiler Version
0

Optimization Enabled:
0

Other Settings:
-NA-
Block Transaction Gas Used Reward
Age Block Fee Address BC Fee Address Voting Power Jailed Incoming
Block Uncle Number Difficulty Gas Used Reward
Loading
Make sure to use the "Vote Down" button for any spammy posts, and the "Vote Up" for interesting conversations.